Time;durP1;ratioP1;P1;durP2;ratioP2;P2;SDS_P1;SDS_P2;PMS_P1;PMS_P2;Temp;Humidity;BMP_temperature;BMP_pressure;BME280_temperature;BME280_humidity;BME280_pressure;Samples;Min_cycle;Max_cycle;Signal;HPM_P1;HPM_P2
2023/07/16 00:02:19;;;;;;;2.35;2.00;;;;;;;26.27;42.78;100117.22;5010364;28;20231;-73
2023/07/16 00:04:45;;;;;;;2.72;2.53;;;;;;;26.18;42.07;100105.59;5028089;28;20721;-73
2023/07/16 00:07:11;;;;;;;3.70;2.45;;;;;;;26.09;42.65;100095.47;5028973;28;20208;-73
2023/07/16 00:09:39;;;;;;;4.18;2.50;;;;;;;26.01;42.46;100094.19;5028260;28;20199;-73
2023/07/16 00:12:06;;;;;;;2.40;2.20;;;;;;;25.95;43.71;100092.53;5024937;28;20680;-73
2023/07/16 00:14:32;;;;;;;3.47;2.47;;;;;;;25.88;44.15;100115.13;5029367;28;20224;-73
2023/07/16 00:16:59;;;;;;;3.10;2.35;;;;;;;25.78;45.00;100108.13;5027685;28;20208;-71
2023/07/16 00:19:25;;;;;;;3.22;2.28;;;;;;;25.69;45.40;100110.03;5021019;28;20207;-73
2023/07/16 00:21:51;;;;;;;2.95;2.38;;;;;;;25.58;45.45;100109.63;5030042;28;20204;-73
2023/07/16 00:24:18;;;;;;;2.75;2.55;;;;;;;25.47;45.88;100118.09;5023498;28;20598;-73
2023/07/16 00:26:45;;;;;;;2.75;2.40;;;;;;;25.37;46.36;100132.69;5021481;28;20215;-73
2023/07/16 00:29:12;;;;;;;3.85;2.50;;;;;;;25.27;47.22;100136.50;5033037;28;20207;-73
2023/07/16 00:31:38;;;;;;;2.63;2.28;;;;;;;25.18;47.00;100151.84;5029935;28;20303;-72
2023/07/16 00:34:04;;;;;;;3.83;2.70;;;;;;;25.08;47.62;100156.38;5029695;28;20220;-73
2023/07/16 00:36:31;;;;;;;5.22;2.35;;;;;;;24.98;47.91;100157.47;5033186;28;20200;-72
2023/07/16 00:38:57;;;;;;;4.13;2.50;;;;;;;24.89;48.14;100162.75;5025057;28;20204;-73
2023/07/16 00:41:23;;;;;;;4.07;2.45;;;;;;;24.81;48.70;100166.09;5030397;28;20200;-73
2023/07/16 00:43:54;;;;;;;3.35;2.20;;;;;;;24.74;49.33;100167.06;5009702;28;20239;-73
2023/07/16 00:46:20;;;;;;;4.90;2.65;;;;;;;24.69;49.17;100172.22;5030969;28;20195;-73
2023/07/16 00:48:46;;;;;;;6.35;2.50;;;;;;;24.66;49.39;100173.09;5030005;28;20742;-73
2023/07/16 00:51:14;;;;;;;2.28;2.00;;;;;;;24.61;49.78;100190.56;5004767;28;20204;-73
2023/07/16 00:53:41;;;;;;;2.60;2.40;;;;;;;24.51;52.39;100245.59;5029883;28;20247;-73
2023/07/16 00:56:08;;;;;;;3.47;2.63;;;;;;;24.38;51.22;100276.44;5029691;28;20204;-73
2023/07/16 00:58:35;;;;;;;3.63;2.67;;;;;;;24.40;50.04;100323.41;5043989;28;20196;-73
2023/07/16 01:01:03;;;;;;;4.47;2.90;;;;;;;24.43;50.61;100360.34;5017408;28;20215;-72
2023/07/16 01:03:29;;;;;;;4.30;2.40;;;;;;;24.42;49.17;100389.28;5033691;28;20216;-73
2023/07/16 01:06:04;;;;;;;4.45;2.72;;;;;;;24.48;51.27;100386.06;5018780;28;20212;-73
2023/07/16 01:08:33;;;;;;;2.93;2.67;;;;;;;24.47;51.28;100392.66;5016014;28;20287;-73
2023/07/16 01:11:01;;;;;;;2.60;2.40;;;;;;;24.50;51.08;100391.81;5030032;28;20689;-73
2023/07/16 01:13:28;;;;;;;4.67;2.67;;;;;;;24.61;51.08;100398.47;5046624;28;20216;-73
2023/07/16 01:15:55;;;;;;;3.77;2.67;;;;;;;24.63;51.86;100401.53;5016586;28;20611;-73
2023/07/16 01:18:23;;;;;;;6.47;2.57;;;;;;;24.74;51.82;100403.97;5032939;28;20215;-73
2023/07/16 01:20:49;;;;;;;3.55;2.70;;;;;;;24.75;51.69;100406.25;5015405;28;20203;-73
2023/07/16 01:23:29;;;;;;;2.60;2.40;;;;;;;24.77;51.61;100411.22;5031679;28;20220;-73
2023/07/16 01:26:06;;;;;;;4.43;2.58;;;;;;;24.85;51.29;100428.75;5026569;28;20254;-73
2023/07/16 01:29:04;;;;;;;2.97;2.67;;;;;;;24.91;50.25;100424.38;5021446;28;20577;-73
2023/07/16 01:31:34;;;;;;;2.58;2.38;;;;;;;24.91;51.17;100435.19;5026215;28;20214;-73
2023/07/16 01:34:03;;;;;;;2.75;2.55;;;;;;;24.93;50.86;100432.78;5015286;28;20318;-73
2023/07/16 01:36:31;;;;;;;2.55;2.30;;;;;;;24.98;50.94;100430.34;5033809;28;20200;-73
2023/07/16 01:38:57;;;;;;;4.55;2.60;;;;;;;24.98;50.96;100446.56;5047576;28;20669;-73
2023/07/16 01:41:24;;;;;;;5.30;2.63;;;;;;;24.98;51.16;100459.28;5026595;28;20204;-73
2023/07/16 01:43:51;;;;;;;3.17;2.38;;;;;;;25.04;51.24;100466.47;5017070;28;20246;-73
2023/07/16 01:46:18;;;;;;;3.22;2.40;;;;;;;25.06;51.62;100472.19;5031530;28;20292;-73
2023/07/16 01:48:46;;;;;;;2.50;2.25;;;;;;;25.07;51.52;100457.50;5012918;28;20204;-73
2023/07/16 01:51:13;;;;;;;2.55;2.20;;;;;;;25.07;51.45;100443.97;5017275;28;20207;-73
2023/07/16 01:53:40;;;;;;;2.75;2.05;;;;;;;25.07;51.12;100440.53;5031947;28;20227;-73
2023/07/16 01:56:06;;;;;;;3.35;2.13;;;;;;;25.10;50.87;100443.16;5035620;28;20199;-73
2023/07/16 01:58:33;;;;;;;2.88;2.20;;;;;;;25.11;50.77;100441.94;5032120;28;20208;-73
2023/07/16 02:00:59;;;;;;;2.92;2.00;;;;;;;25.09;50.58;100444.34;5014218;28;20211;-73
2023/07/16 02:03:26;;;;;;;3.72;1.85;;;;;;;25.05;50.75;100435.56;5028214;28;20223;-73
2023/07/16 02:05:53;;;;;;;4.55;2.40;;;;;;;25.05;50.52;100432.84;5033109;28;20200;-73
2023/07/16 02:08:20;;;;;;;2.65;1.80;;;;;;;25.07;50.31;100432.44;5016293;28;20204;-73
2023/07/16 02:10:48;;;;;;;7.57;2.13;;;;;;;25.04;50.27;100412.44;5017226;28;20204;-73
2023/07/16 02:13:15;;;;;;;2.45;1.80;;;;;;;24.98;50.52;100424.19;5013229;28;20203;-73
2023/07/16 02:15:41;;;;;;;2.85;1.92;;;;;;;25.00;50.70;100409.06;5013848;28;20210;-73
2023/07/16 02:18:07;;;;;;;3.83;1.67;;;;;;;24.89;50.79;100429.41;5013766;28;20398;-73
2023/07/16 02:20:35;;;;;;;2.38;1.65;;;;;;;24.88;51.12;100425.97;5013155;28;20200;-73
2023/07/16 02:23:03;;;;;;;5.80;1.88;;;;;;;24.88;51.13;100419.81;5031428;28;20303;-73
2023/07/16 02:25:29;;;;;;;3.80;2.38;;;;;;;24.87;51.37;100415.59;5012225;28;20196;-73
2023/07/16 02:27:55;;;;;;;1.52;1.40;;;;;;;24.82;50.40;100400.63;5031610;28;20208;-73
2023/07/16 02:30:22;;;;;;;2.05;1.70;;;;;;;24.79;50.46;100411.53;5026772;28;20199;-73
2023/07/16 02:32:49;;;;;;;2.17;1.70;;;;;;;24.76;50.89;100410.44;5025439;28;20553;-73
2023/07/16 02:35:15;;;;;;;2.42;1.70;;;;;;;24.72;50.61;100390.88;5027959;28;20565;-73
2023/07/16 02:37:41;;;;;;;2.45;1.70;;;;;;;24.69;50.67;100399.84;5029657;28;20203;-73
2023/07/16 02:40:10;;;;;;;1.40;1.30;;;;;;;24.71;50.78;100402.13;5033096;28;20211;-73
2023/07/16 02:42:36;;;;;;;2.53;1.30;;;;;;;24.71;51.13;100416.38;5015368;28;20196;-73
2023/07/16 02:45:02;;;;;;;2.58;1.55;;;;;;;24.68;51.21;100422.63;5013906;28;20240;-73
2023/07/16 02:47:29;;;;;;;1.40;1.30;;;;;;;24.65;51.94;100428.13;5017521;28;20303;-73
2023/07/16 02:49:55;;;;;;;3.40;1.50;;;;;;;24.64;51.50;100415.78;5009939;28;20680;-73
2023/07/16 02:52:22;;;;;;;1.92;1.23;;;;;;;24.66;51.47;100405.34;5013802;28;20195;-72
2023/07/16 02:54:48;;;;;;;1.87;1.20;;;;;;;24.61;51.84;100417.38;5013735;28;20310;-73
2023/07/16 02:57:16;;;;;;;1.20;1.10;;;;;;;24.59;51.54;100413.59;5025982;28;20200;-73
2023/07/16 02:59:42;;;;;;;1.70;1.38;;;;;;;24.56;51.44;100411.72;5011755;28;20204;-73
2023/07/16 03:02:08;;;;;;;2.10;1.20;;;;;;;24.51;51.53;100420.34;5016266;28;20200;-73
2023/07/16 03:04:35;;;;;;;1.30;1.10;;;;;;;24.55;51.24;100421.00;5020631;28;20229;-73
2023/07/16 03:07:01;;;;;;;2.25;1.13;;;;;;;24.49;51.84;100420.75;5014478;28;20308;-73
2023/07/16 03:09:27;;;;;;;1.45;0.95;;;;;;;24.48;51.94;100419.25;5028673;28;20554;-73
2023/07/16 03:11:54;;;;;;;2.47;1.27;;;;;;;24.48;51.77;100422.69;5028652;28;20674;-73
2023/07/16 03:14:21;;;;;;;0.87;0.80;;;;;;;24.41;51.40;100419.38;5032212;28;20282;-73
2023/07/16 03:16:48;;;;;;;1.00;0.90;;;;;;;24.43;51.79;100400.84;5021176;28;20196;-73
2023/07/16 03:19:14;;;;;;;1.23;1.00;;;;;;;24.36;51.58;100414.53;5017649;28;20278;-73
2023/07/16 03:21:41;;;;;;;1.20;0.70;;;;;;;24.31;52.41;100439.31;5013397;28;20196;-73
2023/07/16 03:24:07;;;;;;;1.60;0.90;;;;;;;24.38;52.97;100455.34;5008770;28;20223;-73
2023/07/16 03:26:34;;;;;;;1.75;1.20;;;;;;;24.34;53.81;100467.41;5029269;28;20223;-73
2023/07/16 03:29:00;;;;;;;2.07;1.00;;;;;;;24.32;53.04;100477.84;5014339;28;20604;-73
2023/07/16 03:31:29;;;;;;;2.80;1.10;;;;;;;24.24;55.41;100495.41;5030505;28;20685;-73
2023/07/16 03:33:56;;;;;;;1.23;0.90;;;;;;;24.13;53.89;100494.84;5045944;28;20219;-73
2023/07/16 03:36:25;;;;;;;2.43;1.00;;;;;;;24.07;56.74;100524.28;5028597;28;20235;-73
2023/07/16 03:38:52;;;;;;;2.40;1.50;;;;;;;23.96;57.61;100534.53;5029582;28;20232;-73
2023/07/16 03:41:18;;;;;;;1.47;1.10;;;;;;;23.84;57.61;100543.19;5028729;28;20208;-73
2023/07/16 03:43:45;;;;;;;2.70;1.30;;;;;;;23.71;60.17;100542.31;5015787;28;20215;-73
2023/07/16 03:46:21;;;;;;;2.77;1.10;;;;;;;23.54;61.29;100564.97;5011336;28;20206;-73
2023/07/16 03:48:48;;;;;;;1.53;1.40;;;;;;;23.53;61.86;100564.19;5010007;28;20319;-73
2023/07/16 03:51:17;;;;;;;1.53;1.30;;;;;;;23.50;60.02;100538.06;5015908;28;20334;-73
2023/07/16 03:53:43;;;;;;;1.63;1.37;;;;;;;23.44;61.46;100538.97;5024749;28;20299;-73
2023/07/16 03:56:09;;;;;;;2.20;1.50;;;;;;;23.31;63.46;100554.19;5012348;28;20203;-73
2023/07/16 03:58:36;;;;;;;2.90;1.50;;;;;;;23.19;63.48;100562.88;5043922;28;20196;-73
2023/07/16 04:01:05;;;;;;;2.50;1.70;;;;;;;23.06;64.75;100562.69;5010244;28;20292;-73
2023/07/16 04:03:31;;;;;;;2.27;1.20;;;;;;;22.94;64.90;100559.81;5041819;28;20251;-73
2023/07/16 04:06:04;;;;;;;1.30;1.20;;;;;;;22.82;66.04;100569.19;5028863;28;20196;-73
2023/07/16 04:08:30;;;;;;;2.27;1.20;;;;;;;22.82;65.56;100571.16;5028023;28;20195;-73
2023/07/16 04:10:56;;;;;;;2.57;1.50;;;;;;;22.75;66.14;100584.69;5032327;28;20214;-73
2023/07/16 04:13:23;;;;;;;3.23;1.50;;;;;;;22.65;67.54;100605.22;5026386;28;20224;-73
2023/07/16 04:15:49;;;;;;;2.80;1.63;;;;;;;22.53;67.42;100607.69;5027692;28;20654;-73
2023/07/16 04:18:16;;;;;;;3.73;1.73;;;;;;;22.47;67.62;100595.88;5024511;28;20207;-73
2023/07/16 04:20:42;;;;;;;4.83;1.70;;;;;;;22.36;69.56;100585.19;5029663;28;20597;-73
2023/07/16 04:23:10;;;;;;;2.40;1.73;;;;;;;22.27;69.76;100589.56;5022973;28;20208;-72
2023/07/16 04:25:36;;;;;;;3.87;1.60;;;;;;;22.26;69.17;100585.34;5028683;28;20216;-73
2023/07/16 04:28:03;;;;;;;3.77;1.77;;;;;;;22.21;68.97;100600.03;5033334;28;20680;-73
2023/07/16 04:30:30;;;;;;;5.37;2.00;;;;;;;22.18;69.40;100625.03;5028971;28;20258;-73
2023/07/16 04:32:56;;;;;;;3.77;2.20;;;;;;;22.18;69.62;100608.88;5026015;28;20199;-73
2023/07/16 04:35:23;;;;;;;3.90;1.80;;;;;;;22.16;69.42;100608.53;5036535;28;20716;-73
2023/07/16 04:37:49;;;;;;;4.40;2.27;;;;;;;22.14;69.13;100593.97;5026414;28;20271;-73
2023/07/16 04:40:17;;;;;;;4.30;2.10;;;;;;;22.08;70.30;100579.41;5033874;28;20202;-72
2023/07/16 04:42:43;;;;;;;2.33;1.70;;;;;;;22.08;70.42;100565.97;5030120;28;20196;-73
2023/07/16 04:45:09;;;;;;;2.07;1.87;;;;;;;22.05;70.28;100551.38;5029277;28;20709;-73
2023/07/16 04:47:36;;;;;;;3.33;2.13;;;;;;;22.05;68.97;100516.44;5031745;28;20195;-73
2023/07/16 04:50:02;;;;;;;4.53;2.27;;;;;;;22.05;68.98;100518.38;5034203;28;20539;-73
2023/07/16 04:52:28;;;;;;;2.93;2.37;;;;;;;22.04;70.08;100522.25;5045753;28;20194;-72
2023/07/16 04:54:55;;;;;;;3.80;2.27;;;;;;;22.02;69.52;100500.34;5056339;28;20223;-73
2023/07/16 04:57:23;;;;;;;3.40;2.47;;;;;;;22.03;70.80;100515.31;5057522;28;20210;-72
2023/07/16 04:59:49;;;;;;;3.17;2.07;;;;;;;22.02;70.32;100506.50;5055760;28;20247;-72
2023/07/16 05:02:17;;;;;;;2.63;2.03;;;;;;;22.01;71.07;100504.19;5054043;28;20189;-72
2023/07/16 05:04:47;;;;;;;3.30;2.30;;;;;;;22.02;70.47;100505.72;5056285;28;20242;-72
2023/07/16 05:07:13;;;;;;;3.80;2.37;;;;;;;22.02;70.52;100494.97;5056189;28;20249;-72
2023/07/16 05:09:40;;;;;;;3.63;2.40;;;;;;;22.06;70.07;100503.75;5053531;28;20214;-72
2023/07/16 05:12:07;;;;;;;2.77;2.20;;;;;;;22.04;72.19;100498.78;5046479;28;20235;-73
2023/07/16 05:14:44;;;;;;;4.33;2.10;;;;;;;22.04;71.93;100496.09;5032706;28;20693;-73
2023/07/16 05:17:10;;;;;;;4.20;2.47;;;;;;;22.09;71.27;100484.88;5030384;28;20676;-73
2023/07/16 05:19:36;;;;;;;3.20;2.27;;;;;;;22.13;70.64;100472.16;5034259;28;20200;-73
2023/07/16 05:22:03;;;;;;;3.80;2.00;;;;;;;22.18;71.84;100487.06;5033628;28;20215;-73
2023/07/16 05:24:29;;;;;;;3.23;2.23;;;;;;;22.22;72.68;100495.84;5005953;28;20275;-73
2023/07/16 05:26:56;;;;;;;4.03;2.27;;;;;;;22.25;73.01;100498.50;5034785;28;20286;-73
2023/07/16 05:29:22;;;;;;;5.33;2.40;;;;;;;22.25;73.37;100501.19;5033818;28;20208;-73
2023/07/16 05:31:50;;;;;;;3.47;2.50;;;;;;;22.31;72.53;100510.31;5043415;28;20195;-73
2023/07/16 05:34:16;;;;;;;4.10;2.20;;;;;;;22.34;72.64;100514.13;5036876;28;20230;-73
2023/07/16 05:36:44;;;;;;;2.80;2.50;;;;;;;22.39;72.73;100509.06;5035355;28;20602;-73
2023/07/16 05:39:12;;;;;;;2.80;2.20;;;;;;;22.42;72.72;100531.72;5025907;28;20637;-73
2023/07/16 05:41:39;;;;;;;3.33;2.30;;;;;;;22.40;72.82;100544.81;5033374;28;20207;-73
2023/07/16 05:44:06;;;;;;;6.30;2.40;;;;;;;22.42;73.01;100551.31;5033385;28;20227;-73
2023/07/16 05:46:32;;;;;;;3.60;2.30;;;;;;;22.41;73.06;100544.38;5027537;28;20220;-73
2023/07/16 05:49:00;;;;;;;3.00;2.03;;;;;;;22.44;72.23;100565.16;5033205;28;20206;-73
2023/07/16 05:51:26;;;;;;;4.30;2.13;;;;;;;22.48;72.64;100580.50;5032543;28;20211;-73
2023/07/16 05:53:52;;;;;;;3.40;2.20;;;;;;;22.54;72.18;100585.00;5028413;28;20224;-73
2023/07/16 05:56:19;;;;;;;2.80;1.97;;;;;;;22.55;72.86;100592.69;5018519;28;20215;-74
2023/07/16 05:58:45;;;;;;;3.13;2.10;;;;;;;22.58;72.48;100604.56;5030831;28;20577;-74
2023/07/16 06:01:12;;;;;;;3.27;2.13;;;;;;;22.62;73.88;100648.34;5028908;28;20200;-74
2023/07/16 06:03:38;;;;;;;4.37;2.07;;;;;;;22.68;73.05;100633.25;5030894;28;20242;-74
2023/07/16 06:06:06;;;;;;;2.30;2.10;;;;;;;22.70;72.77;100642.47;5029756;28;20200;-74
2023/07/16 06:08:32;;;;;;;4.37;2.17;;;;;;;22.74;73.27;100647.78;5028769;28;20242;-74
2023/07/16 06:10:59;;;;;;;2.77;1.90;;;;;;;22.78;73.10;100643.13;5014116;28;20266;-74
2023/07/16 06:13:25;;;;;;;3.67;2.00;;;;;;;22.77;73.53;100655.06;5028389;28;20226;-74
2023/07/16 06:15:51;;;;;;;3.53;2.27;;;;;;;22.73;73.35;100651.66;5024697;28;20540;-74
2023/07/16 06:18:18;;;;;;;2.20;1.90;;;;;;;22.78;73.09;100660.06;5026153;28;20199;-74
2023/07/16 06:20:44;;;;;;;2.70;2.00;;;;;;;22.82;72.89;100644.59;5031461;28;20204;-73
2023/07/16 06:23:12;;;;;;;2.43;2.03;;;;;;;22.85;73.04;100651.09;5029561;28;20208;-74
2023/07/16 06:25:40;;;;;;;3.20;2.10;;;;;;;22.84;72.61;100641.50;5027562;28;20219;-74
2023/07/16 06:28:06;;;;;;;3.83;2.13;;;;;;;22.84;72.88;100647.66;5032333;28;20196;-74
2023/07/16 06:30:33;;;;;;;2.57;1.97;;;;;;;22.90;72.29;100654.13;5030010;28;20204;-74
2023/07/16 06:33:00;;;;;;;3.50;2.27;;;;;;;22.94;72.46;100660.22;5029902;28;20231;-74
2023/07/16 06:35:27;;;;;;;3.77;2.10;;;;;;;22.99;72.80;100667.06;5028333;28;20243;-74
2023/07/16 06:37:53;;;;;;;2.40;2.20;;;;;;;23.00;72.50;100660.50;5029702;28;20207;-74
2023/07/16 06:40:21;;;;;;;3.23;1.93;;;;;;;23.03;72.11;100675.88;5027398;28;20226;-74
2023/07/16 06:42:47;;;;;;;2.37;2.17;;;;;;;23.11;72.86;100685.34;5030795;28;20200;-74
2023/07/16 06:45:13;;;;;;;2.90;2.23;;;;;;;23.18;71.76;100682.63;5027007;28;20220;-74
2023/07/16 06:47:40;;;;;;;2.57;2.00;;;;;;;23.21;72.05;100689.84;5030940;28;20203;-74
2023/07/16 06:50:07;;;;;;;2.37;2.10;;;;;;;23.21;71.50;100683.72;5032900;28;20215;-74
2023/07/16 06:52:33;;;;;;;3.07;2.37;;;;;;;23.23;71.40;100692.16;5029454;28;20200;-74
2023/07/16 06:55:00;;;;;;;3.00;2.37;;;;;;;23.27;71.24;100696.31;5014393;28;20323;-74
2023/07/16 06:57:27;;;;;;;3.93;2.17;;;;;;;23.31;71.44;100698.97;5029881;28;20653;-74
2023/07/16 06:59:54;;;;;;;2.90;2.27;;;;;;;23.41;71.47;100692.66;5027594;28;20654;-74
2023/07/16 07:02:20;;;;;;;4.00;2.50;;;;;;;23.54;72.53;100684.34;5031423;28;20646;-74
2023/07/16 07:04:47;;;;;;;2.40;2.20;;;;;;;23.72;71.88;100686.00;5031225;28;20314;-74
2023/07/16 07:07:13;;;;;;;2.60;2.20;;;;;;;23.90;71.56;100689.94;5031281;28;20205;-74
2023/07/16 07:09:40;;;;;;;2.17;1.97;;;;;;;24.08;70.32;100684.97;5025844;28;20202;-74
2023/07/16 07:12:07;;;;;;;2.80;2.00;;;;;;;24.28;70.32;100683.06;5025750;28;20196;-74
2023/07/16 07:14:35;;;;;;;3.10;2.10;;;;;;;24.42;69.74;100683.53;5015760;28;20212;-74
2023/07/16 07:17:01;;;;;;;2.72;1.90;;;;;;;24.49;69.19;100690.72;5030376;28;20200;-74
2023/07/16 07:19:27;;;;;;;3.10;1.80;;;;;;;24.60;68.38;100683.19;5028957;28;20196;-73
2023/07/16 07:21:54;;;;;;;2.72;2.13;;;;;;;24.67;68.21;100696.56;5038035;28;20550;-73
2023/07/16 07:24:20;;;;;;;3.15;1.70;;;;;;;24.77;67.84;100687.47;5029731;28;20224;-73
2023/07/16 07:26:46;;;;;;;2.22;1.77;;;;;;;24.77;67.62;100692.13;5026571;28;20204;-73
2023/07/16 07:29:13;;;;;;;2.80;2.03;;;;;;;24.82;67.53;100695.06;5026042;28;20196;-73
2023/07/16 07:31:41;;;;;;;3.25;2.00;;;;;;;24.80;66.95;100694.75;5028546;28;20299;-73
2023/07/16 07:34:07;;;;;;;3.20;1.80;;;;;;;24.86;66.84;100695.03;5026091;28;20282;-73
2023/07/16 07:36:33;;;;;;;1.80;1.70;;;;;;;24.91;66.56;100699.94;5029711;28;20193;-73
2023/07/16 07:39:00;;;;;;;2.05;1.77;;;;;;;24.92;67.09;100701.44;5029426;28;20197;-73
2023/07/16 07:41:26;;;;;;;2.40;2.20;;;;;;;24.95;67.20;100701.38;5029144;28;20196;-73
2023/07/16 07:43:52;;;;;;;4.57;2.00;;;;;;;25.03;66.79;100694.59;5029766;28;20219;-73
2023/07/16 07:46:19;;;;;;;2.40;2.03;;;;;;;24.43;69.51;100703.94;5012168;28;20216;-73
2023/07/16 07:48:47;;;;;;;1.95;1.73;;;;;;;24.45;69.17;100703.53;4974630;28;20315;-73
2023/07/16 07:51:13;;;;;;;1.95;1.85;;;;;;;24.53;69.16;100700.28;5028406;28;20196;-73
2023/07/16 07:53:39;;;;;;;2.60;2.10;;;;;;;24.59;68.49;100705.22;5029260;28;20226;-73
2023/07/16 07:56:06;;;;;;;2.40;2.20;;;;;;;24.65;69.06;100701.63;5024042;28;20207;-73
2023/07/16 07:58:32;;;;;;;2.33;1.85;;;;;;;24.72;69.57;100701.47;5032314;28;20231;-72
2023/07/16 08:01:05;;;;;;;2.08;1.88;;;;;;;24.81;67.20;100698.97;5030608;28;20191;-73
2023/07/16 08:03:31;;;;;;;2.10;1.90;;;;;;;24.89;66.63;100700.34;5027695;28;20220;-73
2023/07/16 08:05:59;;;;;;;2.85;2.08;;;;;;;25.00;66.50;100703.56;5024486;28;20238;-73
2023/07/16 08:08:25;;;;;;;4.90;2.10;;;;;;;25.13;67.43;100698.28;5027474;28;20204;-74
2023/07/16 08:10:51;;;;;;;2.05;1.80;;;;;;;25.24;65.90;100706.91;5024470;28;20868;-72
2023/07/16 08:13:18;;;;;;;2.20;1.80;;;;;;;25.36;63.65;100700.84;5030084;28;20196;-73
2023/07/16 08:15:44;;;;;;;2.28;2.00;;;;;;;25.47;65.09;100701.34;5023459;28;20652;-73
2023/07/16 08:18:11;;;;;;;4.03;1.60;;;;;;;25.56;64.44;100702.28;5024135;28;20203;-74
2023/07/16 08:20:38;;;;;;;2.78;1.70;;;;;;;25.55;63.22;100706.19;5025623;28;20211;-73
2023/07/16 08:23:06;;;;;;;1.90;1.80;;;;;;;25.66;63.49;100711.31;5024028;28;20195;-74
2023/07/16 08:25:32;;;;;;;2.17;1.60;;;;;;;25.75;62.32;100714.94;5027464;28;20216;-73
2023/07/16 08:27:59;;;;;;;2.08;1.70;;;;;;;25.83;61.65;100719.00;5026026;28;20199;-73
2023/07/16 08:30:25;;;;;;;1.60;1.50;;;;;;;25.91;62.26;100728.47;5027759;28;20204;-73
2023/07/16 08:32:51;;;;;;;1.70;1.55;;;;;;;26.00;60.30;100717.06;5026413;28;20200;-74
2023/07/16 08:35:19;;;;;;;3.10;1.58;;;;;;;26.02;58.23;100722.81;5031171;28;20215;-73
2023/07/16 08:37:46;;;;;;;2.03;1.58;;;;;;;26.16;56.52;100725.88;5027117;28;20203;-74
2023/07/16 08:40:14;;;;;;;2.15;1.52;;;;;;;26.32;57.56;100733.97;5012793;28;20206;-73
2023/07/16 08:42:44;;;;;;;1.88;1.30;;;;;;;26.42;55.16;100743.00;5023579;28;20231;-73
2023/07/16 08:45:11;;;;;;;3.08;1.58;;;;;;;26.54;55.91;100745.00;5023632;28;20220;-73
2023/07/16 08:47:38;;;;;;;2.60;1.50;;;;;;;26.70;52.88;100748.44;5027976;28;20648;-73
2023/07/16 08:50:05;;;;;;;3.25;1.20;;;;;;;26.81;54.25;100742.69;5026577;28;20199;-73
2023/07/16 08:52:32;;;;;;;2.97;1.50;;;;;;;26.96;52.03;100741.09;5024691;28;20302;-73
2023/07/16 08:54:58;;;;;;;2.65;1.27;;;;;;;27.09;51.91;100752.72;5027081;28;20749;-73
2023/07/16 08:57:27;;;;;;;2.90;1.30;;;;;;;27.17;55.97;100749.38;5022870;28;20204;-72
2023/07/16 08:59:56;;;;;;;2.17;1.83;;;;;;;27.35;51.39;100729.88;5024789;28;20208;-73
2023/07/16 09:02:22;;;;;;;3.42;1.70;;;;;;;27.49;49.70;100740.25;5033211;28;20259;-73
2023/07/16 09:04:50;;;;;;;2.20;1.42;;;;;;;27.52;48.89;100744.81;5038520;28;20228;-73
2023/07/16 09:07:17;;;;;;;2.95;1.38;;;;;;;27.53;50.69;100746.31;5039404;28;20204;-72
2023/07/16 09:09:43;;;;;;;3.38;1.40;;;;;;;27.36;45.79;100740.28;5027140;28;20188;-72
2023/07/16 09:12:13;;;;;;;2.42;1.50;;;;;;;27.40;48.94;100746.34;5042933;28;20204;-72
2023/07/16 09:14:42;;;;;;;1.35;1.23;;;;;;;27.46;48.50;100744.59;5047023;28;20255;-72
2023/07/16 09:17:09;;;;;;;3.60;1.88;;;;;;;27.43;47.22;100744.69;5048307;28;20200;-72
2023/07/16 09:19:35;;;;;;;2.50;1.67;;;;;;;27.56;50.19;100743.50;5044761;28;20196;-73
2023/07/16 09:22:01;;;;;;;3.40;1.67;;;;;;;27.59;46.34;100750.78;5038853;28;20577;-73
2023/07/16 09:24:29;;;;;;;6.32;1.42;;;;;;;27.55;49.14;100752.09;5030702;28;20232;-73
2023/07/16 09:26:57;;;;;;;1.33;1.23;;;;;;;27.61;45.44;100747.63;5027860;28;20606;-73
2023/07/16 09:29:25;;;;;;;2.35;1.30;;;;;;;27.66;45.70;100745.09;5032451;28;20189;-73
2023/07/16 09:31:55;;;;;;;1.77;1.30;;;;;;;27.61;46.99;100750.34;5027623;28;20204;-73
2023/07/16 09:34:21;;;;;;;1.67;1.40;;;;;;;27.51;48.94;100748.72;5029599;28;20557;-73
2023/07/16 09:36:48;;;;;;;2.65;2.00;;;;;;;27.50;45.17;100749.91;5027380;28;20552;-73
2023/07/16 09:39:17;;;;;;;1.70;1.30;;;;;;;27.59;46.25;100750.00;5027117;28;20199;-73
2023/07/16 09:41:43;;;;;;;2.15;1.45;;;;;;;27.73;44.66;100744.88;5022270;28;20199;-72
2023/07/16 09:44:11;;;;;;;1.98;1.60;;;;;;;27.75;44.30;100745.19;5026156;28;20217;-73
2023/07/16 09:46:37;;;;;;;1.40;1.13;;;;;;;27.85;45.91;100748.78;5026318;28;20239;-72
2023/07/16 09:49:05;;;;;;;4.60;1.65;;;;;;;27.97;46.41;100748.75;5009738;28;20200;-73
2023/07/16 09:51:33;;;;;;;1.52;1.30;;;;;;;28.08;45.38;100765.44;5025329;28;20223;-73
2023/07/16 09:54:02;;;;;;;2.78;1.45;;;;;;;28.10;45.22;100757.63;5028699;28;20219;-73
2023/07/16 09:56:34;;;;;;;1.95;1.48;;;;;;;28.14;47.57;100771.84;5025657;28;20200;-73
2023/07/16 09:59:02;;;;;;;2.58;1.40;;;;;;;28.09;43.77;100766.22;5031693;28;20191;-73
2023/07/16 10:01:30;;;;;;;2.40;1.30;;;;;;;28.08;44.84;100770.88;5028087;28;20688;-73
2023/07/16 10:03:56;;;;;;;2.53;1.35;;;;;;;28.25;42.66;100760.59;5031204;28;20228;-73
2023/07/16 10:06:24;;;;;;;2.85;1.20;;;;;;;28.39;43.59;100760.88;5031448;28;20657;-74
2023/07/16 10:08:50;;;;;;;4.43;1.40;;;;;;;28.45;43.92;100767.31;5010373;28;20215;-74
2023/07/16 10:11:17;;;;;;;1.92;1.35;;;;;;;28.48;41.52;100769.13;5028528;28;20204;-74
2023/07/16 10:13:44;;;;;;;2.00;1.25;;;;;;;28.54;42.74;100751.03;5026165;28;20426;-74
2023/07/16 10:16:21;;;;;;;3.47;1.25;;;;;;;28.63;41.73;100770.13;5022716;28;20192;-74
2023/07/16 10:18:53;;;;;;;5.75;2.20;;;;;;;28.77;42.42;100766.91;5026111;28;20192;-74
2023/07/16 10:21:25;;;;;;;4.28;1.83;;;;;;;28.80;41.64;100768.72;5022271;28;20464;-74
2023/07/16 10:23:58;;;;;;;4.95;2.78;;;;;;;28.84;47.18;100768.63;5026413;28;21011;-74
2023/07/16 10:26:28;;;;;;;3.75;1.60;;;;;;;28.99;40.98;100764.94;5026874;28;20709;-74
2023/07/16 10:28:54;;;;;;;4.35;1.60;;;;;;;29.13;39.68;100760.91;5022131;28;20205;-75
2023/07/16 10:31:22;;;;;;;3.78;1.30;;;;;;;29.29;41.07;100772.31;5025384;28;20200;-76
2023/07/16 10:33:59;;;;;;;3.08;1.42;;;;;;;29.37;40.17;100770.81;5027884;28;20654;-74
2023/07/16 10:36:27;;;;;;;2.35;1.40;;;;;;;29.45;41.65;100791.13;5027819;28;20204;-74
2023/07/16 10:38:53;;;;;;;1.65;1.27;;;;;;;29.43;39.13;100788.09;5025699;28;20574;-74
2023/07/16 10:41:19;;;;;;;2.85;1.35;;;;;;;29.32;41.61;100771.41;5029045;28;20204;-74
2023/07/16 10:43:46;;;;;;;2.22;1.20;;;;;;;29.12;39.69;100792.03;5025441;28;20244;-74
2023/07/16 10:46:12;;;;;;;1.40;1.10;;;;;;;29.19;40.64;100799.91;5026612;28;20615;-74
2023/07/16 10:48:46;;;;;;;1.48;1.30;;;;;;;29.13;36.81;100805.19;5029472;28;20206;-74
2023/07/16 10:51:15;;;;;;;2.00;1.40;;;;;;;29.18;40.45;100801.13;5028208;28;20561;-74
2023/07/16 10:53:43;;;;;;;2.42;1.15;;;;;;;29.14;36.42;100795.06;5029637;28;20811;-74
2023/07/16 10:56:10;;;;;;;2.13;1.13;;;;;;;29.10;34.76;100797.91;5028213;28;20198;-74
2023/07/16 10:58:37;;;;;;;2.97;1.33;;;;;;;29.08;38.46;100784.03;5024079;28;20199;-74
2023/07/16 11:01:04;;;;;;;2.60;1.20;;;;;;;28.95;35.98;100782.56;5024094;28;20199;-74
2023/07/16 11:03:30;;;;;;;2.83;1.23;;;;;;;29.00;36.19;100779.31;5023429;28;20216;-75
2023/07/16 11:05:57;;;;;;;3.05;1.50;;;;;;;29.04;35.58;100788.84;5027673;28;20227;-74
2023/07/16 11:08:23;;;;;;;3.15;1.35;;;;;;;29.12;42.36;100790.09;5026405;28;20196;-74
2023/07/16 11:10:55;;;;;;;1.55;0.85;;;;;;;29.21;39.89;100801.00;5026077;28;20211;-74
2023/07/16 11:13:26;;;;;;;3.08;1.27;;;;;;;29.30;37.50;100795.59;5026516;28;20670;-74
2023/07/16 11:15:53;;;;;;;1.88;1.20;;;;;;;29.39;36.15;100795.66;5029321;28;20206;-74
2023/07/16 11:18:19;;;;;;;2.50;1.08;;;;;;;29.51;36.71;100785.88;5021908;28;20614;-74
2023/07/16 11:20:46;;;;;;;4.35;1.25;;;;;;;29.63;35.71;100793.91;5020572;28;20196;-74
2023/07/16 11:23:12;;;;;;;2.47;1.20;;;;;;;29.77;38.04;100795.34;5029099;28;20223;-74
2023/07/16 11:25:38;;;;;;;2.50;1.00;;;;;;;29.84;36.71;100803.94;5027342;28;20693;-74